Time;durP1;ratioP1;P1;durP2;ratioP2;P2;SDS_P1;SDS_P2;PMS_P1;PMS_P2;Temp;Humidity;BMP_temperature;BMP_pressure;BME280_temperature;BME280_humidity;BME280_pressure;Samples;Min_cycle;Max_cycle;Signal;HPM_P1;HPM_P2
2022/08/30 00:01:01;;;;;;;2.97;1.23;;;22.10;53.40;;;;;;4935464;29;20682;-83
2022/08/30 00:01:56;;;;;;;3.20;1.33;;;22.00;53.40;;;;;;4935433;29;20562;-82
2022/08/30 00:04:22;;;;;;;2.20;1.30;;;22.00;53.90;;;;;;4935517;29;21163;-81
2022/08/30 00:06:48;;;;;;;2.53;1.13;;;21.90;53.80;;;;;;4935700;29;20583;-81
2022/08/30 00:09:13;;;;;;;3.30;1.40;;;21.80;53.90;;;;;;4934841;29;20595;-81
2022/08/30 00:11:39;;;;;;;2.90;1.47;;;21.80;54.20;;;;;;4938169;29;20208;-81
2022/08/30 00:14:05;;;;;;;2.60;1.23;;;21.70;54.30;;;;;;4935464;29;20200;-81
2022/08/30 00:16:31;;;;;;;2.50;1.40;;;21.70;54.40;;;;;;4917712;29;20177;-81
2022/08/30 00:18:58;;;;;;;3.20;1.37;;;21.60;54.50;;;;;;4918742;29;20926;-82
2022/08/30 00:21:25;;;;;;;2.60;1.57;;;21.60;54.60;;;;;;4934945;29;20699;-81
2022/08/30 00:23:52;;;;;;;3.20;1.40;;;21.60;54.90;;;;;;4934968;29;20577;-81
2022/08/30 00:26:18;;;;;;;3.00;1.37;;;21.60;55.10;;;;;;4917657;29;20573;-82
2022/08/30 00:28:45;;;;;;;3.10;1.10;;;21.50;55.30;;;;;;4919039;29;20592;-82
2022/08/30 00:31:11;;;;;;;3.27;1.17;;;21.50;55.50;;;;;;4935190;29;20676;-82
2022/08/30 00:33:38;;;;;;;2.67;1.83;;;21.40;55.70;;;;;;4936033;29;20565;-82
2022/08/30 00:36:04;;;;;;;2.43;1.60;;;21.40;55.90;;;;;;4918369;29;20631;-82
2022/08/30 00:38:30;;;;;;;2.53;1.10;;;21.40;56.00;;;;;;4918025;29;20573;-82
2022/08/30 00:40:58;;;;;;;2.17;1.20;;;21.40;56.30;;;;;;4917513;29;20577;-82
2022/08/30 00:43:29;;;;;;;3.10;1.43;;;21.40;56.50;;;;;;4934557;29;21061;-82
2022/08/30 00:45:56;;;;;;;3.40;1.40;;;21.30;56.90;;;;;;4919073;29;20592;-83
2022/08/30 00:48:22;;;;;;;2.37;1.37;;;21.40;57.20;;;;;;4920349;29;20576;-83
2022/08/30 00:50:52;;;;;;;2.97;1.67;;;21.30;57.20;;;;;;4936054;29;20573;-82
2022/08/30 00:53:25;;;;;;;3.20;1.23;;;21.30;57.40;;;;;;4936214;29;20581;-82
2022/08/30 00:55:52;;;;;;;3.40;1.40;;;21.30;57.90;;;;;;4936139;29;20973;-83
2022/08/30 00:58:24;;;;;;;4.33;1.83;;;21.30;57.80;;;;;;4918983;29;20573;-82
2022/08/30 01:00:53;;;;;;;3.60;1.40;;;21.30;58.10;;;;;;4918397;29;20955;-82
2022/08/30 01:03:20;;;;;;;2.30;1.20;;;21.30;58.20;;;;;;4919461;29;20575;-82
2022/08/30 01:05:48;;;;;;;2.60;1.30;;;21.20;58.20;;;;;;4939466;29;21126;-82
2022/08/30 01:08:14;;;;;;;2.97;1.30;;;21.20;58.60;;;;;;4921745;29;20687;-82
2022/08/30 01:10:41;;;;;;;4.60;1.50;;;21.20;58.80;;;;;;4937968;29;20576;-82
2022/08/30 01:13:13;;;;;;;2.27;1.23;;;21.20;59.00;;;;;;4937496;29;20941;-82
2022/08/30 01:15:43;;;;;;;4.47;1.60;;;21.20;59.10;;;;;;4945541;29;20688;-82
2022/08/30 01:18:10;;;;;;;6.23;2.60;;;21.10;59.30;;;;;;4939146;29;20613;-84
2022/08/30 01:21:02;;;;;;;2.73;1.20;;;21.10;59.60;;;;;;4938696;29;20577;-83
2022/08/30 01:23:30;;;;;;;2.80;1.50;;;21.10;60.50;;;;;;4906486;29;20915;-82
2022/08/30 01:25:57;;;;;;;2.33;1.40;;;21.10;60.10;;;;;;4904506;29;20583;-83
2022/08/30 01:28:26;;;;;;;2.43;1.33;;;21.10;60.50;;;;;;4937418;29;21107;-82
2022/08/30 01:30:52;;;;;;;2.50;1.40;;;21.10;61.00;;;;;;4937091;29;20577;-82
2022/08/30 01:33:21;;;;;;;6.03;2.70;;;21.10;61.40;;;;;;4937654;29;20573;-82
2022/08/30 01:35:52;;;;;;;3.30;1.77;;;21.20;62.00;;;;;;4937413;29;20624;-82
2022/08/30 01:38:22;;;;;;;3.30;1.70;;;21.20;62.20;;;;;;4935758;29;20596;-81
2022/08/30 01:40:49;;;;;;;2.00;1.30;;;21.20;62.80;;;;;;4936914;29;20573;-81
2022/08/30 01:43:17;;;;;;;2.53;1.50;;;21.30;63.00;;;;;;4919974;29;20588;-81
2022/08/30 01:45:43;;;;;;;2.60;1.20;;;21.30;62.80;;;;;;4937126;29;20579;-81
2022/08/30 01:48:11;;;;;;;4.93;1.20;;;21.30;62.90;;;;;;4920146;29;20564;-81
2022/08/30 01:50:38;;;;;;;2.80;1.70;;;21.40;63.90;;;;;;4936628;29;20963;-81
2022/08/30 01:53:04;;;;;;;2.73;1.30;;;21.40;63.30;;;;;;4919912;29;20580;-81
2022/08/30 01:55:30;;;;;;;3.40;1.30;;;21.30;63.40;;;;;;4919753;29;20688;-81
2022/08/30 01:57:56;;;;;;;3.17;1.87;;;21.40;63.60;;;;;;4919819;29;20576;-81
2022/08/30 02:00:21;;;;;;;3.20;1.40;;;21.40;64.00;;;;;;4937671;29;20565;-81
2022/08/30 02:02:48;;;;;;;3.23;1.90;;;21.40;64.60;;;;;;4936683;29;20279;-82
2022/08/30 02:05:14;;;;;;;4.17;1.63;;;21.50;65.20;;;;;;4919778;29;20527;-82
2022/08/30 02:07:40;;;;;;;3.23;1.70;;;21.50;65.40;;;;;;4919899;29;20615;-82
2022/08/30 02:10:07;;;;;;;4.47;1.23;;;21.50;65.50;;;;;;4919450;29;20600;-82
2022/08/30 02:12:33;;;;;;;2.57;1.20;;;21.50;65.60;;;;;;4936806;29;20612;-81
2022/08/30 02:14:59;;;;;;;3.10;1.43;;;21.50;65.60;;;;;;4919384;29;21260;-81
2022/08/30 02:17:26;;;;;;;2.73;1.40;;;21.60;65.80;;;;;;4936826;29;20568;-81
2022/08/30 02:19:52;;;;;;;3.40;2.17;;;21.60;65.90;;;;;;4919055;29;20681;-81
2022/08/30 02:22:19;;;;;;;2.97;1.53;;;21.60;66.30;;;;;;4903501;29;20696;-81
2022/08/30 02:24:45;;;;;;;4.70;1.63;;;21.60;66.70;;;;;;4936637;29;20709;-81
2022/08/30 02:27:11;;;;;;;2.50;1.40;;;21.60;67.60;;;;;;4936467;29;20605;-81
2022/08/30 02:29:37;;;;;;;2.73;1.47;;;21.60;67.10;;;;;;4919214;29;20204;-82
2022/08/30 02:32:03;;;;;;;2.33;1.10;;;21.60;67.30;;;;;;4936042;29;20697;-81
2022/08/30 02:34:29;;;;;;;2.40;1.37;;;21.60;67.50;;;;;;4919317;29;20209;-81
2022/08/30 02:36:55;;;;;;;8.67;1.63;;;21.60;67.70;;;;;;4937019;29;20680;-81
2022/08/30 02:39:21;;;;;;;2.17;1.27;;;21.60;68.00;;;;;;4919082;29;20181;-81
2022/08/30 02:41:47;;;;;;;3.90;2.50;;;21.60;68.10;;;;;;4918784;29;20304;-81
2022/08/30 02:44:12;;;;;;;3.30;1.30;;;21.60;68.30;;;;;;4935023;29;20546;-83
2022/08/30 02:46:38;;;;;;;2.90;1.40;;;21.60;68.40;;;;;;4936016;29;20695;-80
2022/08/30 02:49:07;;;;;;;2.80;1.27;;;21.60;68.50;;;;;;4919158;29;20562;-81
2022/08/30 02:51:33;;;;;;;2.67;1.23;;;21.60;68.70;;;;;;4935077;29;20636;-82
2022/08/30 02:53:59;;;;;;;3.23;1.00;;;21.60;68.80;;;;;;4935569;29;20596;-82
2022/08/30 02:56:25;;;;;;;3.00;1.53;;;21.60;69.10;;;;;;4918855;29;20619;-81
2022/08/30 02:58:50;;;;;;;2.73;1.40;;;21.60;69.30;;;;;;4918685;29;20321;-81
2022/08/30 03:01:17;;;;;;;2.63;1.20;;;21.60;69.60;;;;;;4918319;29;20582;-80
2022/08/30 03:03:45;;;;;;;2.53;1.30;;;21.50;69.30;;;;;;4935864;29;20178;-81
2022/08/30 03:06:12;;;;;;;2.70;1.40;;;21.50;69.60;;;;;;4934563;29;20636;-81
2022/08/30 03:08:38;;;;;;;2.90;1.17;;;21.50;69.80;;;;;;4935754;29;20599;-81
2022/08/30 03:11:04;;;;;;;1.90;1.10;;;21.40;70.00;;;;;;4935616;29;20989;-81
2022/08/30 03:13:30;;;;;;;2.97;1.50;;;21.40;70.30;;;;;;4936405;29;20588;-81
2022/08/30 03:15:56;;;;;;;3.20;1.40;;;21.40;70.60;;;;;;4935643;29;20633;-81
2022/08/30 03:18:23;;;;;;;2.53;1.30;;;21.40;70.90;;;;;;4918482;29;20588;-82
2022/08/30 03:20:49;;;;;;;2.50;1.07;;;21.30;71.00;;;;;;4935122;29;20169;-82
2022/08/30 03:23:16;;;;;;;4.23;1.53;;;21.30;71.40;;;;;;4902748;29;21210;-82
2022/08/30 03:25:42;;;;;;;3.97;1.70;;;21.30;71.60;;;;;;4935347;29;20617;-82
2022/08/30 03:28:08;;;;;;;2.30;1.33;;;21.30;72.10;;;;;;4917611;29;20612;-82
2022/08/30 03:30:34;;;;;;;3.23;1.70;;;21.30;72.10;;;;;;4934993;29;20573;-83
2022/08/30 03:33:01;;;;;;;3.07;1.10;;;21.20;72.40;;;;;;4902292;29;20609;-82
2022/08/30 03:35:27;;;;;;;3.20;1.20;;;21.20;73.60;;;;;;4918097;29;20628;-83
2022/08/30 03:37:53;;;;;;;2.93;1.20;;;21.20;73.10;;;;;;4918241;29;20595;-82
2022/08/30 03:40:20;;;;;;;2.40;1.20;;;21.20;73.30;;;;;;4934912;29;20573;-83
2022/08/30 03:42:47;;;;;;;3.03;1.50;;;21.20;73.70;;;;;;4934797;29;20353;-82
2022/08/30 03:45:16;;;;;;;2.50;1.20;;;21.20;73.90;;;;;;4918019;29;20909;-82
2022/08/30 03:47:42;;;;;;;3.70;1.30;;;21.20;74.20;;;;;;4935056;29;20584;-82
2022/08/30 03:50:09;;;;;;;2.80;1.50;;;21.20;74.30;;;;;;4888039;29;20569;-83
2022/08/30 03:52:34;;;;;;;2.57;1.50;;;21.20;74.70;;;;;;4917756;29;20994;-83
2022/08/30 03:55:00;;;;;;;2.30;1.30;;;21.20;75.00;;;;;;4935662;29;20635;-84
2022/08/30 03:57:28;;;;;;;2.73;1.10;;;21.20;75.20;;;;;;4918377;29;20976;-83
2022/08/30 03:59:53;;;;;;;2.80;1.60;;;21.20;75.60;;;;;;4934935;29;20636;-83
2022/08/30 04:02:19;;;;;;;2.77;1.40;;;21.20;75.70;;;;;;4934996;29;20605;-82
2022/08/30 04:04:45;;;;;;;2.67;1.30;;;21.20;75.80;;;;;;4918138;29;20177;-79
2022/08/30 04:07:11;;;;;;;2.00;1.13;;;21.10;76.00;;;;;;4917517;29;20228;-79
2022/08/30 04:09:37;;;;;;;3.10;1.40;;;21.10;76.00;;;;;;4934449;29;20601;-78
2022/08/30 04:12:03;;;;;;;2.40;1.30;;;21.10;76.50;;;;;;4934465;29;20188;-78
2022/08/30 04:14:29;;;;;;;3.13;1.30;;;21.00;76.50;;;;;;4933449;29;20676;-78
2022/08/30 04:16:55;;;;;;;3.67;1.30;;;21.00;77.00;;;;;;4934631;29;20569;-78
2022/08/30 04:19:20;;;;;;;3.50;1.27;;;20.90;77.40;;;;;;4930803;29;20177;-78
2022/08/30 04:21:46;;;;;;;3.00;1.23;;;20.80;77.50;;;;;;4930921;29;20279;-78
2022/08/30 04:24:12;;;;;;;2.77;1.30;;;20.80;77.70;;;;;;4913533;29;20299;-78
2022/08/30 04:26:38;;;;;;;2.40;1.20;;;20.70;77.90;;;;;;4918097;29;20970;-76
2022/08/30 04:29:04;;;;;;;2.43;1.30;;;20.70;78.20;;;;;;4932584;29;20219;-77
2022/08/30 04:31:30;;;;;;;4.17;1.57;;;20.60;78.50;;;;;;4933443;29;20196;-78
2022/08/30 04:33:56;;;;;;;3.50;1.50;;;20.60;79.00;;;;;;4934293;29;20659;-77
2022/08/30 04:36:22;;;;;;;3.77;1.30;;;20.60;79.40;;;;;;4932441;29;20566;-79
2022/08/30 04:38:48;;;;;;;2.30;1.10;;;20.50;79.60;;;;;;4936626;29;21133;-78
2022/08/30 04:41:17;;;;;;;2.83;1.60;;;20.50;80.20;;;;;;4923343;29;20624;-78
2022/08/30 04:43:44;;;;;;;2.33;1.20;;;20.40;80.60;;;;;;4940827;29;20173;-78
2022/08/30 04:46:12;;;;;;;4.87;1.70;;;20.40;80.80;;;;;;4940787;29;20623;-78
2022/08/30 04:48:39;;;;;;;2.97;1.60;;;20.40;81.30;;;;;;4907894;29;20624;-79
2022/08/30 04:51:07;;;;;;;4.17;1.70;;;20.40;81.80;;;;;;4938816;29;21222;-78
2022/08/30 04:53:33;;;;;;;3.67;1.80;;;20.40;82.30;;;;;;4940759;29;20660;-79
2022/08/30 04:55:59;;;;;;;3.03;1.60;;;20.40;82.70;;;;;;4907816;29;20669;-80
2022/08/30 04:58:25;;;;;;;3.10;1.40;;;20.40;83.30;;;;;;4939755;29;21192;-80
2022/08/30 05:00:51;;;;;;;3.43;1.53;;;20.40;83.90;;;;;;4940616;29;20169;-80
2022/08/30 05:03:17;;;;;;;2.77;1.60;;;20.50;84.40;;;;;;4941011;29;20998;-80
2022/08/30 05:05:48;;;;;;;3.03;1.27;;;20.50;84.80;;;;;;4941648;29;20251;-79
2022/08/30 05:08:15;;;;;;;2.30;1.10;;;20.60;85.30;;;;;;4923521;29;20221;-79
2022/08/30 05:10:45;;;;;;;3.13;1.33;;;20.60;85.40;;;;;;4923076;29;20652;-80
2022/08/30 05:13:11;;;;;;;5.70;1.30;;;20.70;85.60;;;;;;4923374;29;20564;-78
2022/08/30 05:15:39;;;;;;;4.33;1.97;;;20.80;85.90;;;;;;4940623;29;20669;-78
2022/08/30 05:18:06;;;;;;;2.73;1.50;;;20.90;86.00;;;;;;4923140;29;20635;-79
2022/08/30 05:20:33;;;;;;;2.93;1.43;;;20.90;86.00;;;;;;4940108;29;20916;-78
2022/08/30 05:22:59;;;;;;;2.80;1.83;;;21.00;86.20;;;;;;4940384;29;20654;-78
2022/08/30 05:25:28;;;;;;;3.10;1.50;;;21.00;86.40;;;;;;4940848;29;20616;-78
2022/08/30 05:27:54;;;;;;;2.80;1.30;;;21.10;86.50;;;;;;4906635;29;20596;-79
2022/08/30 05:30:22;;;;;;;2.43;1.70;;;21.10;86.50;;;;;;4931408;29;20596;-79
2022/08/30 05:32:48;;;;;;;5.40;1.60;;;21.10;86.50;;;;;;4939849;29;20620;-80
2022/08/30 05:35:16;;;;;;;2.47;1.20;;;21.20;86.50;;;;;;4940232;29;21177;-80
2022/08/30 05:37:43;;;;;;;3.00;1.23;;;21.20;86.60;;;;;;4940273;29;20639;-80
2022/08/30 05:40:10;;;;;;;3.00;1.60;;;21.20;86.60;;;;;;4944359;29;20568;-79
2022/08/30 05:42:36;;;;;;;2.63;1.73;;;21.30;86.80;;;;;;4924591;29;20624;-79
2022/08/30 05:45:04;;;;;;;3.40;1.40;;;21.30;86.80;;;;;;4904347;29;20569;-79
2022/08/30 05:47:30;;;;;;;3.30;1.50;;;21.40;87.90;;;;;;4921273;29;20570;-79
2022/08/30 05:49:56;;;;;;;6.50;1.90;;;21.40;87.00;;;;;;4919491;29;20668;-78
2022/08/30 05:52:22;;;;;;;4.60;2.00;;;21.50;87.30;;;;;;4917842;29;21215;-79
2022/08/30 05:54:57;;;;;;;4.20;1.40;;;21.50;87.40;;;;;;4901323;29;20204;-79
2022/08/30 05:57:24;;;;;;;6.27;1.60;;;21.50;87.70;;;;;;4918171;29;20673;-79
2022/08/30 05:59:50;;;;;;;2.63;1.53;;;21.70;87.70;;;;;;4917926;29;21127;-78
2022/08/30 06:02:16;;;;;;;3.23;1.40;;;21.70;87.70;;;;;;4900803;29;20621;-79
2022/08/30 06:04:42;;;;;;;2.47;1.40;;;21.80;87.70;;;;;;4917728;29;20736;-80
2022/08/30 06:07:08;;;;;;;3.17;1.70;;;21.90;87.80;;;;;;4918167;29;20574;-80
2022/08/30 06:09:35;;;;;;;2.20;1.50;;;22.00;88.10;;;;;;4900757;29;20573;-80
2022/08/30 06:12:00;;;;;;;3.17;1.83;;;22.10;88.20;;;;;;4917773;29;20614;-79
2022/08/30 06:14:26;;;;;;;2.47;1.40;;;22.20;88.20;;;;;;4917966;29;20632;-78
2022/08/30 06:16:52;;;;;;;3.47;1.77;;;22.30;88.00;;;;;;4923628;29;20162;-79
2022/08/30 06:19:19;;;;;;;5.20;1.97;;;22.40;88.00;;;;;;4917949;29;20573;-80
2022/08/30 06:21:49;;;;;;;2.60;1.40;;;22.60;88.00;;;;;;4900601;29;21105;-78
2022/08/30 06:24:15;;;;;;;4.70;1.50;;;22.70;87.90;;;;;;4917762;29;20570;-79
2022/08/30 06:26:43;;;;;;;2.53;1.00;;;22.80;87.60;;;;;;4917759;29;20939;-80
2022/08/30 06:29:11;;;;;;;4.17;1.20;;;23.00;87.30;;;;;;4917657;29;21131;-79
2022/08/30 06:31:37;;;;;;;6.20;1.70;;;23.10;87.10;;;;;;4900540;29;20620;-81
2022/08/30 06:34:04;;;;;;;6.30;1.80;;;23.20;86.90;;;;;;4917763;29;20565;-80
2022/08/30 06:36:31;;;;;;;3.13;1.30;;;23.30;86.20;;;;;;4918388;29;20603;-78
2022/08/30 06:38:57;;;;;;;3.37;1.33;;;23.40;85.80;;;;;;4919678;29;20578;-79
2022/08/30 06:41:28;;;;;;;3.10;1.40;;;23.50;85.70;;;;;;4906382;29;20705;-78
2022/08/30 06:43:54;;;;;;;3.73;1.20;;;23.80;85.90;;;;;;4919802;29;20585;-79
2022/08/30 06:46:28;;;;;;;4.90;1.77;;;24.40;87.60;;;;;;4937698;29;20630;-80
2022/08/30 06:48:55;;;;;;;4.70;1.30;;;25.20;88.00;;;;;;4935871;29;20676;-80
2022/08/30 06:51:25;;;;;;;2.20;1.30;;;26.00;88.40;;;;;;4918559;29;20612;-80
2022/08/30 06:53:51;;;;;;;3.70;1.93;;;26.80;86.50;;;;;;4939015;29;20580;-81
2022/08/30 06:56:17;;;;;;;2.43;1.00;;;27.20;83.40;;;;;;4903303;29;20629;-79
2022/08/30 06:58:44;;;;;;;2.03;1.27;;;27.50;81.60;;;;;;4918861;29;20619;-79
2022/08/30 07:01:12;;;;;;;4.43;1.30;;;28.00;78.80;;;;;;4899337;29;20661;-79
2022/08/30 07:03:38;;;;;;;4.00;2.50;;;28.50;79.10;;;;;;4917098;29;20558;-79
2022/08/30 07:06:05;;;;;;;3.30;1.50;;;29.10;77.50;;;;;;4917226;29;20566;-78
2022/08/30 07:08:31;;;;;;;3.23;1.10;;;29.70;76.40;;;;;;4916929;29;20573;-80
2022/08/30 07:10:57;;;;;;;3.17;1.57;;;30.30;74.60;;;;;;4915806;29;21004;-81
2022/08/30 07:13:23;;;;;;;3.67;1.30;;;30.90;73.20;;;;;;4932868;29;20664;-80
2022/08/30 07:15:50;;;;;;;4.77;1.27;;;31.50;71.20;;;;;;4938275;29;20264;-80
2022/08/30 07:21:14;;;;;;;1.90;1.20;;;31.70;59.80;;;;;;4920439;29;20604;-82
2022/08/30 07:23:43;;;;;;;6.83;1.37;;;32.00;60.00;;;;;;4927917;29;20588;-80
2022/08/30 07:26:13;;;;;;;2.93;1.20;;;32.20;57.90;;;;;;4939810;29;21133;-81
2022/08/30 07:28:41;;;;;;;3.50;1.27;;;32.20;56.80;;;;;;4935577;29;20600;-81
2022/08/30 07:31:08;;;;;;;2.80;1.23;;;32.10;56.80;;;;;;4939764;29;21228;-80
2022/08/30 07:33:34;;;;;;;3.33;1.20;;;32.20;56.30;;;;;;4950663;28;20604;-81
2022/08/30 07:36:00;;;;;;;4.93;1.30;;;32.30;56.00;;;;;;4917706;29;20652;-79
2022/08/30 07:38:27;;;;;;;4.30;1.20;;;32.40;55.10;;;;;;4939871;29;20622;-80
2022/08/30 07:40:53;;;;;;;2.73;1.40;;;32.30;54.50;;;;;;4935121;29;20571;-80
2022/08/30 07:43:19;;;;;;;3.03;1.20;;;32.60;54.60;;;;;;4918345;29;20639;-80
2022/08/30 07:45:45;;;;;;;2.40;1.47;;;33.00;54.90;;;;;;4935783;29;20618;-80
2022/08/30 07:48:12;;;;;;;2.20;1.20;;;33.30;53.90;;;;;;4934273;29;20601;-80
2022/08/30 07:50:43;;;;;;;3.30;1.63;;;33.60;52.40;;;;;;4935306;29;20579;-80
2022/08/30 07:53:09;;;;;;;2.40;1.20;;;34.10;52.40;;;;;;4918779;29;20575;-82
2022/08/30 07:55:34;;;;;;;4.20;1.47;;;34.20;50.80;;;;;;4935274;29;20927;-81
2022/08/30 07:58:00;;;;;;;2.23;1.03;;;34.40;49.50;;;;;;4919017;29;20591;-83
2022/08/30 08:00:26;;;;;;;3.03;1.27;;;34.60;49.60;;;;;;4919143;29;20188;-81
2022/08/30 08:02:53;;;;;;;2.37;1.30;;;35.00;50.00;;;;;;4934874;29;20608;-81
2022/08/30 08:05:18;;;;;;;3.27;1.20;;;35.20;48.50;;;;;;4935310;29;20205;-81
2022/08/30 08:07:44;;;;;;;3.90;1.40;;;35.20;47.30;;;;;;4922640;29;20584;-81
2022/08/30 08:10:12;;;;;;;2.87;1.03;;;35.00;47.10;;;;;;4934777;29;20626;-81
2022/08/30 08:12:38;;;;;;;4.20;1.10;;;35.00;46.80;;;;;;4935641;29;20189;-82
2022/08/30 08:15:05;;;;;;;2.83;1.10;;;35.20;46.60;;;;;;4936312;29;20963;-82
2022/08/30 08:17:31;;;;;;;3.50;1.60;;;35.20;46.50;;;;;;4941702;28;20580;-81
2022/08/30 08:19:57;;;;;;;2.00;1.03;;;35.30;45.80;;;;;;4936604;28;20592;-81
2022/08/30 08:22:23;;;;;;;3.20;1.47;;;35.20;45.30;;;;;;4919006;29;20219;-81
2022/08/30 08:24:49;;;;;;;6.43;2.50;;;34.90;44.10;;;;;;4935058;29;20232;-81
2022/08/30 08:27:15;;;;;;;2.17;1.23;;;34.60;44.10;;;;;;4904872;29;20226;-82
2022/08/30 08:29:41;;;;;;;3.00;1.10;;;34.40;44.40;;;;;;4936049;29;20572;-81
2022/08/30 08:32:07;;;;;;;2.57;1.50;;;34.60;45.10;;;;;;4918583;29;20599;-82
2022/08/30 08:34:34;;;;;;;2.63;1.23;;;34.90;45.40;;;;;;4918514;29;20177;-82
2022/08/30 08:37:00;;;;;;;2.70;1.10;;;35.50;45.30;;;;;;4935714;29;20952;-81
2022/08/30 08:39:25;;;;;;;1.70;1.20;;;36.10;45.40;;;;;;4923659;29;20569;-81
2022/08/30 08:41:57;;;;;;;4.10;1.60;;;36.70;44.70;;;;;;4900195;29;20251;-81
2022/08/30 08:44:40;;;;;;;2.73;1.00;;;37.10;43.50;;;;;;4892023;29;20231;-82
2022/08/30 08:47:09;;;;;;;3.90;1.10;;;37.50;43.50;;;;;;4917084;29;20633;-81
2022/08/30 08:49:38;;;;;;;2.67;1.17;;;38.20;43.10;;;;;;4904132;29;20649;-81
2022/08/30 08:55:08;;;;;;;2.10;1.07;;;39.40;41.60;;;;;;4893555;29;20605;-81
2022/08/30 08:57:36;;;;;;;2.50;0.90;;;40.10;40.50;;;;;;4916138;29;20986;-82
2022/08/30 09:00:08;;;;;;;5.00;1.23;;;40.60;39.80;;;;;;4900237;29;20665;-75
2022/08/30 09:03:03;;;;;;;2.27;1.00;;;41.00;39.10;;;;;;4897952;29;20605;-76
2022/08/30 09:05:38;;;;;;;3.43;1.20;;;41.50;39.50;;;;;;4898855;29;21191;-74
2022/08/30 09:08:09;;;;;;;3.30;1.20;;;41.90;37.30;;;;;;4913802;29;20589;-75
2022/08/30 09:10:35;;;;;;;3.87;1.23;;;42.10;34.60;;;;;;4914806;29;21182;-75
2022/08/30 09:13:01;;;;;;;3.80;1.30;;;41.90;35.50;;;;;;4913858;29;20647;-74
2022/08/30 09:15:30;;;;;;;3.63;1.13;;;42.00;35.20;;;;;;4914101;29;20612;-74
2022/08/30 09:18:01;;;;;;;2.47;0.90;;;42.00;34.40;;;;;;4915084;29;21061;-76
2022/08/30 09:20:35;;;;;;;4.03;1.10;;;42.00;33.90;;;;;;4915194;29;20642;-74
2022/08/30 09:23:19;;;;;;;4.53;1.37;;;41.80;31.90;;;;;;4914915;29;20644;-75
2022/08/30 09:26:04;;;;;;;3.57;0.93;;;41.70;32.70;;;;;;4899087;29;20634;-75
2022/08/30 09:28:43;;;;;;;3.37;1.20;;;41.80;32.90;;;;;;4901513;29;20624;-75
2022/08/30 09:31:24;;;;;;;3.50;1.37;;;41.90;33.00;;;;;;4901114;29;20625;-75
2022/08/30 09:34:02;;;;;;;3.60;1.00;;;42.30;33.10;;;;;;4917815;29;20689;-75
2022/08/30 09:36:44;;;;;;;3.17;1.10;;;42.40;32.20;;;;;;4901095;29;20600;-75
2022/08/30 09:39:28;;;;;;;2.27;1.30;;;42.40;31.90;;;;;;4882597;29;20606;-74
2022/08/30 09:42:08;;;;;;;2.53;1.47;;;42.00;29.60;;;;;;4891549;29;20614;-73
2022/08/30 09:44:37;;;;;;;3.13;1.20;;;41.50;30.20;;;;;;4915175;29;20643;-75
2022/08/30 09:47:05;;;;;;;2.23;1.03;;;41.00;30.60;;;;;;4921790;28;20623;-74
2022/08/30 09:49:35;;;;;;;3.10;1.17;;;40.80;31.10;;;;;;4943016;28;20972;-74
2022/08/30 09:52:07;;;;;;;2.70;1.30;;;40.80;30.80;;;;;;4937898;29;20616;-74
2022/08/30 09:54:43;;;;;;;2.90;1.20;;;41.00;30.40;;;;;;4937332;29;20627;-81
2022/08/30 09:57:46;;;;;;;7.47;1.10;;;41.10;30.40;;;;;;4941600;29;20588;-80
2022/08/30 10:00:22;;;;;;;3.40;1.20;;;41.20;31.00;;;;;;4937160;29;20632;-80
2022/08/30 10:02:57;;;;;;;2.10;1.10;;;41.40;30.10;;;;;;4917563;29;20620;-79
2022/08/30 10:05:30;;;;;;;1.73;0.93;;;41.50;29.90;;;;;;4919525;29;20644;-81
2022/08/30 10:08:11;;;;;;;1.87;1.13;;;41.60;29.40;;;;;;4919175;29;20640;-80
2022/08/30 10:10:55;;;;;;;2.37;1.40;;;41.80;30.00;;;;;;4901140;29;20756;-81
2022/08/30 10:13:33;;;;;;;1.90;1.00;;;42.00;29.50;;;;;;4933895;28;20911;-80
2022/08/30 10:16:14;;;;;;;3.10;1.30;;;42.10;29.10;;;;;;4956538;28;20571;-81
2022/08/30 10:18:55;;;;;;;1.77;1.23;;;42.10;29.00;;;;;;4939678;28;20584;-81
2022/08/30 10:21:34;;;;;;;2.83;1.30;;;42.10;29.30;;;;;;4938134;29;21052;-82
2022/08/30 10:24:05;;;;;;;2.97;1.10;;;42.00;28.40;;;;;;4956053;28;20639;-81
2022/08/30 10:26:36;;;;;;;12.77;1.93;;;41.60;28.70;;;;;;4955710;28;20658;-82
2022/08/30 10:29:18;;;;;;;5.30;1.30;;;41.20;28.40;;;;;;4938574;29;20862;-82
2022/08/30 10:32:09;;;;;;;2.73;1.00;;;40.80;28.10;;;;;;4955582;28;20992;-82
2022/08/30 10:34:40;;;;;;;5.20;1.20;;;40.30;28.30;;;;;;4961057;28;20571;-82
2022/08/30 10:37:12;;;;;;;3.60;1.27;;;39.80;28.20;;;;;;4953865;28;20627;-81
2022/08/30 10:41:11;;;;;;;2.57;1.30;;;39.40;28.60;;;;;;4904250;29;20601;-81
2022/08/30 10:42:51;;;;;;;4.47;1.23;;;38.70;28.30;;;;;;4933652;29;20635;-80
2022/08/30 10:45:17;;;;;;;4.40;1.60;;;37.80;28.60;;;;;;4937093;29;20616;-82
2022/08/30 10:48:11;;;;;;;3.30;1.20;;;36.90;28.80;;;;;;4919604;29;21005;-81
2022/08/30 10:50:42;;;;;;;2.47;1.33;;;36.10;29.30;;;;;;4935437;29;20603;-82
2022/08/30 10:53:38;;;;;;;2.60;1.30;;;35.20;29.60;;;;;;4933963;29;20682;-83
2022/08/30 10:56:11;;;;;;;3.73;1.00;;;34.70;30.80;;;;;;4935717;29;20591;-83
2022/08/30 10:58:38;;;;;;;2.13;1.10;;;34.60;31.20;;;;;;4918882;29;20635;-82
2022/08/30 11:01:29;;;;;;;2.63;1.10;;;34.70;31.80;;;;;;4927293;29;21260;-82
2022/08/30 11:04:07;;;;;;;2.23;1.10;;;34.90;32.00;;;;;;4935798;29;20573;-81
2022/08/30 11:07:04;;;;;;;2.70;1.23;;;35.10;32.10;;;;;;4902128;29;20671;-82
2022/08/30 11:09:51;;;;;;;2.57;1.27;;;35.50;32.30;;;;;;4934885;29;20588;-81
2022/08/30 11:12:29;;;;;;;3.20;1.00;;;35.80;31.50;;;;;;4928130;29;20631;-82
2022/08/30 11:14:56;;;;;;;1.93;1.00;;;36.20;31.30;;;;;;4918479;29;20591;-82
2022/08/30 11:17:54;;;;;;;3.83;1.60;;;36.50;31.50;;;;;;4935745;29;20605;-82
2022/08/30 11:20:49;;;;;;;1.80;1.00;;;36.60;30.90;;;;;;4907385;29;21245;-83
2022/08/30 11:23:30;;;;;;;2.57;1.03;;;36.80;30.90;;;;;;4935731;29;20959;-83
2022/08/30 11:26:06;;;;;;;2.40;1.00;;;36.90;30.70;;;;;;4902957;29;20620;-82
2022/08/30 11:28:34;;;;;;;3.20;1.20;;;37.00;30.60;;;;;;4924807;29;20615;-81
2022/08/30 11:31:11;;;;;;;2.47;1.40;;;37.10;30.70;;;;;;4917870;29;20624;-80
2022/08/30 11:33:51;;;;;;;1.80;1.20;;;37.10;30.70;;;;;;4918228;29;20556;-81
2022/08/30 11:36:29;;;;;;;2.03;1.30;;;37.30;30.40;;;;;;4918362;29;20583;-80
2022/08/30 11:39:00;;;;;;;1.90;1.20;;;37.40;30.60;;;;;;4903814;29;20573;-81
2022/08/30 11:41:43;;;;;;;3.30;1.20;;;37.60;30.70;;;;;;4918073;29;21002;-81
2022/08/30 11:44:21;;;;;;;2.20;1.07;;;37.60;30.30;;;;;;4903258;29;20580;-81
2022/08/30 11:46:48;;;;;;;2.57;0.93;;;37.60;30.00;;;;;;4907769;29;20652;-80
2022/08/30 11:49:17;;;;;;;2.73;1.80;;;37.60;30.00;;;;;;4919360;29;20561;-80
2022/08/30 11:51:49;;;;;;;4.30;1.37;;;37.60;30.00;;;;;;4903304;29;20605;-80
2022/08/30 11:54:29;;;;;;;2.00;1.20;;;37.70;30.20;;;;;;4918746;29;20762;-80
2022/08/30 11:57:02;;;;;;;2.67;1.37;;;37.60;29.80;;;;;;4918799;29;20587;-80
2022/08/30 11:59:57;;;;;;;2.27;1.30;;;37.70;30.20;;;;;;4933310;29;20601;-78
2022/08/30 12:02:42;;;;;;;2.40;1.20;;;37.80;30.20;;;;;;4932513;29;20625;-80
2022/08/30 12:05:28;;;;;;;2.63;1.20;;;37.80;30.00;;;;;;4918172;29;21117;-80
2022/08/30 12:08:00;;;;;;;2.07;1.17;;;37.90;30.10;;;;;;4935267;29;20599;-80
2022/08/30 12:10:37;;;;;;;1.83;0.90;;;37.90;29.90;;;;;;4922436;29;20604;-82
2022/08/30 12:13:04;;;;;;;2.67;1.20;;;37.80;30.20;;;;;;4902778;29;21189;-80
2022/08/30 12:16:08;;;;;;;1.90;1.00;;;37.80;29.80;;;;;;4917509;29;20643;-80
2022/08/30 12:18:50;;;;;;;3.47;1.30;;;37.60;29.60;;;;;;4935246;29;20577;-81
2022/08/30 12:21:19;;;;;;;2.67;1.50;;;37.30;29.60;;;;;;4917785;29;20609;-80
2022/08/30 12:24:15;;;;;;;2.80;1.87;;;36.80;29.40;;;;;;4939154;29;20584;-80
2022/08/30 12:26:43;;;;;;;1.80;1.10;;;36.40;29.50;;;;;;4922033;29;20611;-80
2022/08/30 12:29:15;;;;;;;2.10;1.20;;;36.00;29.50;;;;;;4918463;29;20585;-80
2022/08/30 12:31:57;;;;;;;5.07;1.50;;;35.70;29.80;;;;;;4935854;29;20611;-80
2022/08/30 12:34:28;;;;;;;1.80;1.00;;;35.50;30.00;;;;;;4918121;29;20600;-81
2022/08/30 12:37:07;;;;;;;4.50;1.40;;;35.40;30.50;;;;;;4902246;29;20592;-80
2022/08/30 12:39:33;;;;;;;3.07;1.10;;;35.30;30.70;;;;;;4934473;29;20607;-80
2022/08/30 12:42:20;;;;;;;3.10;1.67;;;35.20;30.90;;;;;;4924519;29;21256;-79
2022/08/30 12:44:48;;;;;;;2.20;1.20;;;35.10;30.80;;;;;;4908489;29;20201;-80
2022/08/30 12:47:18;;;;;;;2.17;1.27;;;35.20;31.20;;;;;;4913807;29;20672;-79
2022/08/30 12:49:45;;;;;;;3.73;2.10;;;35.20;31.10;;;;;;4883742;29;20586;-80
2022/08/30 12:52:36;;;;;;;4.83;1.30;;;35.20;31.10;;;;;;4902317;29;21146;-80
2022/08/30 12:55:23;;;;;;;2.73;1.43;;;35.00;31.10;;;;;;4921104;29;20574;-80
2022/08/30 12:58:07;;;;;;;2.93;1.70;;;34.80;31.10;;;;;;4903891;29;21189;-80
2022/08/30 13:00:39;;;;;;;2.20;1.30;;;34.70;31.10;;;;;;4930967;29;20579;-80
2022/08/30 13:03:42;;;;;;;2.30;1.40;;;34.60;31.30;;;;;;4909870;29;20630;-80
2022/08/30 13:06:08;;;;;;;5.50;1.40;;;34.50;31.50;;;;;;4935754;29;20619;-80
2022/08/30 13:08:44;;;;;;;2.53;1.20;;;34.50;31.50;;;;;;4927782;29;20609;-79